Clearwater Beach, FL (33767)

9:51 PM EDT on June 28, 2017 (GMT -0400)
Bayside Court-Clearwater, Fl | | Change Station

Elev 59 ft 27.93 °N, 82.80 °W | Updated 9 seconds ago

Thunderstorm
Thunderstorm
79.7 °F
Feels Like 84 °F
N
0.0
Wind Variable Wind from SE
Gusts 0.0 mph

Today
High -- | Low -- °F
--% Chance of Precip.
Yesterday
High -- | Low -- °F
Precip. -- in
Pressure 30.08 in
Visibility 9.0 miles
Clouds Few 5000 ft
Scattered Clouds 8500 ft
Scattered Clouds 12000 ft
Heat Index 84 °F
Dew Point 76 °F
Humidity 87%
Rainfall 0.00 in
Snow Depth Not available.
6:37 AM 8:31 PM
Waxing Crescent, 30% visible
SPECI KPIE 290144Z 12008KT 9SM VCTS -RA FEW050 SCT085 SCT120 27/24 A3008 RMK AO2 LTG DSNT NW-NE RAB01 TSE04B22E38 P0007 T02670244
Pressure 30.08 in
Visibility 9.0 miles
Clouds Few 5000 ft
Scattered Clouds 8500 ft
Scattered Clouds 12000 ft
Heat Index 84 °F
Dew Point 76 °F
Humidity 87%
Rainfall 0.00 in
Snow Depth Not available.
6:37 AM 8:31 PM
Waxing Crescent, 30% visible
SPECI KPIE 290144Z 12008KT 9SM VCTS -RA FEW050 SCT085 SCT120 27/24 A3008 RMK AO2 LTG DSNT NW-NE RAB01 TSE04B22E38 P0007 T02670244

Get Severe Weather Alerts

Thanks for signing up!

Be on the lookout for a verification email in your inbox.

You'll start receiving the daily forecast at 6 AM.

×

10-Day Weather Forecast

Almanac

Astronomy

Jun. 28, 2017 Rise Set
Actual Time
Civil Twilight
Nautical Twilight
Astronomical Twilight
Moon
Length of Visible Light
Length of Day
Tomorrow will be .
, % of the Moon is Illuminated

Today's Extremes

State Highs State Lows

Community

WunderPhotos

Category 6

Welcome to Category 6. This is the collective home for Weather Underground's featured writeups by Dr. Jeff Masters (right), Bob Henson (left), Chris Burt, and other regular contributors.

Nearby

Air Quality

  Air Quality AQ Index Pollutant
Not available.

Snow Depth

Station Depth Elevation

Earthquake Activity

City Distance Mag. Time & Date
Minimum magnitude displayed is 2.5.

Coastal Water Temperatures

Place Temperature

Stations

Nearby Weather Stations

Station Location Temp. Windchill Dew Point Humidity Wind Precip. Elev Updated Type
                   

Watches & Warnings

There are currently no watches in effect.